sensor_id;sensor_type;location;lat;lon;timestamp;P1;durP1;ratioP1;P2;durP2;ratioP2
55003;SDS011;40900;52.710;6.438;2023-07-31T00:01:14;5.63;;;3.50;;
55003;SDS011;40900;52.710;6.438;2023-07-31T00:03:40;4.90;;;3.67;;
55003;SDS011;40900;52.710;6.438;2023-07-31T00:06:06;5.18;;;3.30;;
55003;SDS011;40900;52.710;6.438;2023-07-31T00:08:31;7.60;;;3.50;;
55003;SDS011;40900;52.710;6.438;2023-07-31T00:10:57;5.85;;;3.28;;
55003;SDS011;40900;52.710;6.438;2023-07-31T00:13:23;5.15;;;3.20;;
55003;SDS011;40900;52.710;6.438;2023-07-31T00:15:49;4.82;;;3.20;;
55003;SDS011;40900;52.710;6.438;2023-07-31T00:18:15;5.20;;;3.40;;
55003;SDS011;40900;52.710;6.438;2023-07-31T00:20:41;6.57;;;3.80;;
55003;SDS011;40900;52.710;6.438;2023-07-31T00:23:06;6.97;;;3.80;;
55003;SDS011;40900;52.710;6.438;2023-07-31T00:25:32;6.70;;;3.55;;
55003;SDS011;40900;52.710;6.438;2023-07-31T00:27:58;6.03;;;3.58;;
55003;SDS011;40900;52.710;6.438;2023-07-31T00:30:23;4.78;;;3.60;;
55003;SDS011;40900;52.710;6.438;2023-07-31T00:32:50;5.45;;;3.17;;
55003;SDS011;40900;52.710;6.438;2023-07-31T00:35:16;6.00;;;3.22;;
55003;SDS011;40900;52.710;6.438;2023-07-31T00:37:41;4.38;;;2.92;;
55003;SDS011;40900;52.710;6.438;2023-07-31T00:40:07;5.47;;;3.17;;
55003;SDS011;40900;52.710;6.438;2023-07-31T00:42:33;6.13;;;3.10;;
55003;SDS011;40900;52.710;6.438;2023-07-31T00:44:59;8.48;;;3.10;;
55003;SDS011;40900;52.710;6.438;2023-07-31T00:47:25;4.43;;;3.15;;
55003;SDS011;40900;52.710;6.438;2023-07-31T00:49:51;5.40;;;3.42;;
55003;SDS011;40900;52.710;6.438;2023-07-31T00:52:18;4.70;;;2.90;;
55003;SDS011;40900;52.710;6.438;2023-07-31T00:54:44;4.85;;;2.58;;
55003;SDS011;40900;52.710;6.438;2023-07-31T00:57:10;4.55;;;2.63;;
55003;SDS011;40900;52.710;6.438;2023-07-31T00:59:36;3.70;;;2.28;;
55003;SDS011;40900;52.710;6.438;2023-07-31T01:02:02;5.30;;;2.40;;
55003;SDS011;40900;52.710;6.438;2023-07-31T01:04:28;3.40;;;2.65;;
55003;SDS011;40900;52.710;6.438;2023-07-31T01:06:56;3.50;;;2.60;;
55003;SDS011;40900;52.710;6.438;2023-07-31T01:12:01;2.70;;;2.13;;
55003;SDS011;40900;52.710;6.438;2023-07-31T01:14:28;2.85;;;2.15;;
55003;SDS011;40900;52.710;6.438;2023-07-31T01:16:54;3.15;;;1.88;;
55003;SDS011;40900;52.710;6.438;2023-07-31T01:19:24;6.75;;;2.17;;
55003;SDS011;40900;52.710;6.438;2023-07-31T01:24:40;3.10;;;1.95;;
55003;SDS011;40900;52.710;6.438;2023-07-31T01:30:09;2.67;;;2.13;;
55003;SDS011;40900;52.710;6.438;2023-07-31T01:32:40;2.08;;;1.60;;
55003;SDS011;40900;52.710;6.438;2023-07-31T01:35:07;2.50;;;1.98;;
55003;SDS011;40900;52.710;6.438;2023-07-31T01:37:34;2.55;;;2.20;;
55003;SDS011;40900;52.710;6.438;2023-07-31T01:39:59;3.15;;;2.10;;
55003;SDS011;40900;52.710;6.438;2023-07-31T01:42:26;7.10;;;2.10;;
55003;SDS011;40900;52.710;6.438;2023-07-31T01:44:51;2.33;;;1.98;;
55003;SDS011;40900;52.710;6.438;2023-07-31T01:47:17;4.00;;;2.03;;
55003;SDS011;40900;52.710;6.438;2023-07-31T01:49:43;2.53;;;1.90;;
55003;SDS011;40900;52.710;6.438;2023-07-31T01:52:09;2.72;;;1.80;;
55003;SDS011;40900;52.710;6.438;2023-07-31T01:54:34;3.10;;;1.88;;
55003;SDS011;40900;52.710;6.438;2023-07-31T01:57:01;1.67;;;1.40;;
55003;SDS011;40900;52.710;6.438;2023-07-31T01:59:27;3.70;;;1.70;;
55003;SDS011;40900;52.710;6.438;2023-07-31T02:01:54;2.33;;;1.63;;
55003;SDS011;40900;52.710;6.438;2023-07-31T02:04:20;2.25;;;1.52;;
55003;SDS011;40900;52.710;6.438;2023-07-31T02:06:45;2.13;;;1.48;;
55003;SDS011;40900;52.710;6.438;2023-07-31T02:09:11;2.85;;;1.75;;
55003;SDS011;40900;52.710;6.438;2023-07-31T02:11:37;2.67;;;1.83;;
55003;SDS011;40900;52.710;6.438;2023-07-31T02:14:03;2.70;;;1.92;;
55003;SDS011;40900;52.710;6.438;2023-07-31T02:16:28;3.78;;;1.90;;
55003;SDS011;40900;52.710;6.438;2023-07-31T02:18:54;3.00;;;2.13;;
55003;SDS011;40900;52.710;6.438;2023-07-31T02:21:20;2.63;;;1.98;;
55003;SDS011;40900;52.710;6.438;2023-07-31T02:23:46;5.03;;;1.90;;
55003;SDS011;40900;52.710;6.438;2023-07-31T02:26:11;3.45;;;2.55;;
55003;SDS011;40900;52.710;6.438;2023-07-31T02:28:37;3.13;;;2.25;;
55003;SDS011;40900;52.710;6.438;2023-07-31T02:31:03;5.15;;;2.50;;
55003;SDS011;40900;52.710;6.438;2023-07-31T02:33:29;3.70;;;2.17;;
55003;SDS011;40900;52.710;6.438;2023-07-31T02:35:54;7.70;;;2.33;;
55003;SDS011;40900;52.710;6.438;2023-07-31T02:38:20;5.55;;;2.40;;
55003;SDS011;40900;52.710;6.438;2023-07-31T02:40:46;5.20;;;2.63;;
55003;SDS011;40900;52.710;6.438;2023-07-31T02:43:13;3.08;;;2.28;;
55003;SDS011;40900;52.710;6.438;2023-07-31T02:45:39;3.65;;;2.60;;
55003;SDS011;40900;52.710;6.438;2023-07-31T02:48:04;6.93;;;3.15;;
55003;SDS011;40900;52.710;6.438;2023-07-31T02:50:30;3.67;;;2.38;;
55003;SDS011;40900;52.710;6.438;2023-07-31T02:52:57;6.07;;;2.75;;
55003;SDS011;40900;52.710;6.438;2023-07-31T02:55:24;6.95;;;3.00;;
55003;SDS011;40900;52.710;6.438;2023-07-31T02:57:49;6.32;;;2.90;;
55003;SDS011;40900;52.710;6.438;2023-07-31T03:00:17;4.95;;;3.10;;
55003;SDS011;40900;52.710;6.438;2023-07-31T03:02:43;4.32;;;3.08;;
55003;SDS011;40900;52.710;6.438;2023-07-31T03:05:09;5.15;;;2.90;;
55003;SDS011;40900;52.710;6.438;2023-07-31T03:07:35;4.00;;;2.97;;
55003;SDS011;40900;52.710;6.438;2023-07-31T03:10:00;5.13;;;2.97;;
55003;SDS011;40900;52.710;6.438;2023-07-31T03:12:27;4.38;;;2.90;;
55003;SDS011;40900;52.710;6.438;2023-07-31T03:14:53;4.95;;;3.15;;
55003;SDS011;40900;52.710;6.438;2023-07-31T03:17:19;3.85;;;2.90;;
55003;SDS011;40900;52.710;6.438;2023-07-31T03:19:45;6.78;;;3.58;;
55003;SDS011;40900;52.710;6.438;2023-07-31T03:22:10;6.07;;;2.58;;
55003;SDS011;40900;52.710;6.438;2023-07-31T03:24:36;4.85;;;2.70;;
55003;SDS011;40900;52.710;6.438;2023-07-31T03:27:02;4.20;;;2.80;;
55003;SDS011;40900;52.710;6.438;2023-07-31T03:29:28;3.83;;;2.58;;
55003;SDS011;40900;52.710;6.438;2023-07-31T03:31:54;5.32;;;2.88;;
55003;SDS011;40900;52.710;6.438;2023-07-31T03:34:19;4.07;;;2.90;;
55003;SDS011;40900;52.710;6.438;2023-07-31T03:36:45;7.78;;;3.42;;
55003;SDS011;40900;52.710;6.438;2023-07-31T03:39:11;5.30;;;2.75;;
55003;SDS011;40900;52.710;6.438;2023-07-31T03:41:37;6.10;;;2.95;;
55003;SDS011;40900;52.710;6.438;2023-07-31T03:44:02;6.68;;;3.25;;
55003;SDS011;40900;52.710;6.438;2023-07-31T03:46:28;4.80;;;3.05;;
55003;SDS011;40900;52.710;6.438;2023-07-31T03:48:54;9.63;;;3.40;;
55003;SDS011;40900;52.710;6.438;2023-07-31T03:51:20;8.77;;;3.55;;
55003;SDS011;40900;52.710;6.438;2023-07-31T03:53:45;4.43;;;2.72;;
55003;SDS011;40900;52.710;6.438;2023-07-31T03:56:11;6.32;;;3.25;;
55003;SDS011;40900;52.710;6.438;2023-07-31T03:58:37;7.43;;;3.58;;
55003;SDS011;40900;52.710;6.438;2023-07-31T04:01:03;7.15;;;3.13;;
55003;SDS011;40900;52.710;6.438;2023-07-31T04:03:29;7.03;;;3.00;;
55003;SDS011;40900;52.710;6.438;2023-07-31T04:05:55;5.93;;;3.13;;
55003;SDS011;40900;52.710;6.438;2023-07-31T04:08:21;7.65;;;3.53;;
55003;SDS011;40900;52.710;6.438;2023-07-31T04:10:47;10.45;;;3.70;;
55003;SDS011;40900;52.710;6.438;2023-07-31T04:13:13;10.07;;;3.75;;
55003;SDS011;40900;52.710;6.438;2023-07-31T04:15:39;10.00;;;3.53;;
55003;SDS011;40900;52.710;6.438;2023-07-31T04:18:05;7.43;;;3.15;;
55003;SDS011;40900;52.710;6.438;2023-07-31T04:20:31;12.43;;;4.95;;
55003;SDS011;40900;52.710;6.438;2023-07-31T04:22:57;16.20;;;5.90;;
55003;SDS011;40900;52.710;6.438;2023-07-31T04:25:22;23.08;;;7.95;;
55003;SDS011;40900;52.710;6.438;2023-07-31T04:27:48;24.48;;;8.13;;
55003;SDS011;40900;52.710;6.438;2023-07-31T04:30:14;27.40;;;8.45;;
55003;SDS011;40900;52.710;6.438;2023-07-31T04:32:39;25.50;;;8.70;;
55003;SDS011;40900;52.710;6.438;2023-07-31T04:35:05;31.45;;;10.05;;
55003;SDS011;40900;52.710;6.438;2023-07-31T04:37:31;33.10;;;10.20;;
55003;SDS011;40900;52.710;6.438;2023-07-31T04:39:57;30.58;;;10.10;;
55003;SDS011;40900;52.710;6.438;2023-07-31T04:42:23;28.25;;;10.63;;
55003;SDS011;40900;52.710;6.438;2023-07-31T04:44:48;33.10;;;11.07;;
55003;SDS011;40900;52.710;6.438;2023-07-31T04:47:14;28.15;;;10.90;;
55003;SDS011;40900;52.710;6.438;2023-07-31T04:49:40;29.23;;;10.43;;
55003;SDS011;40900;52.710;6.438;2023-07-31T04:52:06;38.60;;;11.98;;
55003;SDS011;40900;52.710;6.438;2023-07-31T04:54:32;35.38;;;11.95;;
55003;SDS011;40900;52.710;6.438;2023-07-31T04:56:57;37.65;;;12.63;;
55003;SDS011;40900;52.710;6.438;2023-07-31T04:59:23;40.53;;;11.82;;
55003;SDS011;40900;52.710;6.438;2023-07-31T05:01:52;38.53;;;11.02;;
55003;SDS011;40900;52.710;6.438;2023-07-31T05:04:17;35.63;;;11.82;;
55003;SDS011;40900;52.710;6.438;2023-07-31T05:06:43;35.30;;;12.05;;
55003;SDS011;40900;52.710;6.438;2023-07-31T05:09:09;35.72;;;11.98;;
55003;SDS011;40900;52.710;6.438;2023-07-31T05:11:35;38.25;;;12.65;;
55003;SDS011;40900;52.710;6.438;2023-07-31T05:14:01;36.40;;;12.30;;
55003;SDS011;40900;52.710;6.438;2023-07-31T05:16:26;42.85;;;12.02;;
55003;SDS011;40900;52.710;6.438;2023-07-31T05:18:52;38.63;;;11.68;;
55003;SDS011;40900;52.710;6.438;2023-07-31T05:21:18;42.90;;;12.38;;
55003;SDS011;40900;52.710;6.438;2023-07-31T05:23:43;40.25;;;12.18;;
55003;SDS011;40900;52.710;6.438;2023-07-31T05:26:09;44.10;;;12.55;;
55003;SDS011;40900;52.710;6.438;2023-07-31T05:28:35;38.72;;;12.98;;
55003;SDS011;40900;52.710;6.438;2023-07-31T05:31:04;47.88;;;12.38;;
55003;SDS011;40900;52.710;6.438;2023-07-31T05:33:30;35.05;;;12.43;;
55003;SDS011;40900;52.710;6.438;2023-07-31T05:35:56;45.83;;;12.80;;
55003;SDS011;40900;52.710;6.438;2023-07-31T05:38:23;39.80;;;12.25;;
55003;SDS011;40900;52.710;6.438;2023-07-31T05:40:48;37.72;;;12.23;;
55003;SDS011;40900;52.710;6.438;2023-07-31T05:43:14;36.63;;;11.65;;
55003;SDS011;40900;52.710;6.438;2023-07-31T05:45:41;37.40;;;11.93;;
55003;SDS011;40900;52.710;6.438;2023-07-31T05:48:07;39.55;;;11.98;;
55003;SDS011;40900;52.710;6.438;2023-07-31T05:50:33;34.90;;;12.77;;
55003;SDS011;40900;52.710;6.438;2023-07-31T05:52:59;37.38;;;11.73;;
55003;SDS011;40900;52.710;6.438;2023-07-31T05:55:24;35.65;;;13.35;;
55003;SDS011;40900;52.710;6.438;2023-07-31T05:57:53;35.13;;;11.52;;
55003;SDS011;40900;52.710;6.438;2023-07-31T06:00:21;33.78;;;12.32;;
55003;SDS011;40900;52.710;6.438;2023-07-31T06:02:47;41.10;;;12.23;;
55003;SDS011;40900;52.710;6.438;2023-07-31T06:05:13;33.65;;;12.63;;
55003;SDS011;40900;52.710;6.438;2023-07-31T06:07:39;30.48;;;11.07;;
55003;SDS011;40900;52.710;6.438;2023-07-31T06:10:05;31.55;;;11.88;;
55003;SDS011;40900;52.710;6.438;2023-07-31T06:12:31;32.97;;;11.65;;
55003;SDS011;40900;52.710;6.438;2023-07-31T06:14:57;34.60;;;11.68;;
55003;SDS011;40900;52.710;6.438;2023-07-31T06:17:23;36.95;;;12.60;;
55003;SDS011;40900;52.710;6.438;2023-07-31T06:19:49;34.90;;;11.80;;
55003;SDS011;40900;52.710;6.438;2023-07-31T06:22:16;34.78;;;11.50;;
55003;SDS011;40900;52.710;6.438;2023-07-31T06:24:41;33.65;;;11.98;;
55003;SDS011;40900;52.710;6.438;2023-07-31T06:27:07;34.55;;;11.57;;
55003;SDS011;40900;52.710;6.438;2023-07-31T06:29:34;33.95;;;12.77;;
55003;SDS011;40900;52.710;6.438;2023-07-31T06:32:00;39.53;;;13.10;;
55003;SDS011;40900;52.710;6.438;2023-07-31T06:34:26;33.10;;;12.38;;
55003;SDS011;40900;52.710;6.438;2023-07-31T06:36:52;35.25;;;13.10;;
55003;SDS011;40900;52.710;6.438;2023-07-31T06:39:17;34.88;;;12.88;;
55003;SDS011;40900;52.710;6.438;2023-07-31T06:41:43;32.35;;;13.93;;
55003;SDS011;40900;52.710;6.438;2023-07-31T06:44:09;26.85;;;12.45;;
55003;SDS011;40900;52.710;6.438;2023-07-31T06:46:35;29.95;;;12.45;;
55003;SDS011;40900;52.710;6.438;2023-07-31T06:49:02;26.13;;;10.68;;
55003;SDS011;40900;52.710;6.438;2023-07-31T06:51:27;28.95;;;11.43;;
55003;SDS011;40900;52.710;6.438;2023-07-31T06:53:53;28.50;;;12.75;;
55003;SDS011;40900;52.710;6.438;2023-07-31T06:56:20;25.52;;;11.38;;
55003;SDS011;40900;52.710;6.438;2023-07-31T06:58:46;27.00;;;11.45;;
55003;SDS011;40900;52.710;6.438;2023-07-31T07:01:12;24.02;;;9.82;;
55003;SDS011;40900;52.710;6.438;2023-07-31T07:03:38;22.83;;;9.57;;
55003;SDS011;40900;52.710;6.438;2023-07-31T07:06:03;21.63;;;8.90;;
55003;SDS011;40900;52.710;6.438;2023-07-31T07:08:29;18.40;;;8.77;;
55003;SDS011;40900;52.710;6.438;2023-07-31T07:10:55;18.70;;;9.07;;
55003;SDS011;40900;52.710;6.438;2023-07-31T07:13:21;16.95;;;7.95;;
55003;SDS011;40900;52.710;6.438;2023-07-31T07:15:48;19.33;;;8.48;;
55003;SDS011;40900;52.710;6.438;2023-07-31T07:18:14;16.67;;;7.53;;
55003;SDS011;40900;52.710;6.438;2023-07-31T07:20:45;16.13;;;7.95;;
55003;SDS011;40900;52.710;6.438;2023-07-31T07:23:15;15.65;;;7.95;;
55003;SDS011;40900;52.710;6.438;2023-07-31T07:25:41;16.27;;;6.85;;
55003;SDS011;40900;52.710;6.438;2023-07-31T07:28:08;14.32;;;7.28;;
55003;SDS011;40900;52.710;6.438;2023-07-31T07:30:34;14.98;;;7.00;;
55003;SDS011;40900;52.710;6.438;2023-07-31T07:33:00;15.30;;;6.90;;
55003;SDS011;40900;52.710;6.438;2023-07-31T07:35:25;14.27;;;6.65;;
55003;SDS011;40900;52.710;6.438;2023-07-31T07:37:53;14.23;;;6.50;;
55003;SDS011;40900;52.710;6.438;2023-07-31T07:40:20;11.95;;;5.82;;
55003;SDS011;40900;52.710;6.438;2023-07-31T07:42:46;12.63;;;6.22;;
55003;SDS011;40900;52.710;6.438;2023-07-31T07:45:12;13.18;;;5.40;;
55003;SDS011;40900;52.710;6.438;2023-07-31T07:47:40;14.27;;;6.53;;
55003;SDS011;40900;52.710;6.438;2023-07-31T07:50:06;13.55;;;5.75;;
55003;SDS011;40900;52.710;6.438;2023-07-31T07:52:32;8.73;;;4.65;;
55003;SDS011;40900;52.710;6.438;2023-07-31T07:54:58;10.15;;;5.00;;
55003;SDS011;40900;52.710;6.438;2023-07-31T07:57:25;10.10;;;5.38;;
55003;SDS011;40900;52.710;6.438;2023-07-31T07:59:57;8.50;;;4.82;;
55003;SDS011;40900;52.710;6.438;2023-07-31T08:02:23;9.43;;;5.55;;
55003;SDS011;40900;52.710;6.438;2023-07-31T08:04:49;11.52;;;5.60;;
55003;SDS011;40900;52.710;6.438;2023-07-31T08:07:14;10.18;;;5.50;;
55003;SDS011;40900;52.710;6.438;2023-07-31T08:09:41;10.82;;;5.60;;
55003;SDS011;40900;52.710;6.438;2023-07-31T08:12:06;9.82;;;5.00;;
55003;SDS011;40900;52.710;6.438;2023-07-31T08:14:32;10.18;;;5.32;;
55003;SDS011;40900;52.710;6.438;2023-07-31T08:16:58;8.88;;;4.95;;
55003;SDS011;40900;52.710;6.438;2023-07-31T08:19:31;8.98;;;4.57;;
55003;SDS011;40900;52.710;6.438;2023-07-31T08:21:57;10.27;;;5.43;;
55003;SDS011;40900;52.710;6.438;2023-07-31T08:24:24;7.93;;;5.55;;
55003;SDS011;40900;52.710;6.438;2023-07-31T08:26:49;9.48;;;4.95;;
55003;SDS011;40900;52.710;6.438;2023-07-31T08:29:15;9.52;;;4.82;;
55003;SDS011;40900;52.710;6.438;2023-07-31T08:31:41;8.50;;;4.72;;
55003;SDS011;40900;52.710;6.438;2023-07-31T08:34:06;7.70;;;4.45;;
55003;SDS011;40900;52.710;6.438;2023-07-31T08:36:32;7.35;;;4.80;;
55003;SDS011;40900;52.710;6.438;2023-07-31T08:38:58;7.82;;;6.13;;
55003;SDS011;40900;52.710;6.438;2023-07-31T08:41:24;13.75;;;10.65;;
55003;SDS011;40900;52.710;6.438;2023-07-31T08:43:50;12.80;;;9.32;;
55003;SDS011;40900;52.710;6.438;2023-07-31T08:46:17;9.93;;;6.03;;
55003;SDS011;40900;52.710;6.438;2023-07-31T08:48:45;12.23;;;6.75;;
55003;SDS011;40900;52.710;6.438;2023-07-31T08:51:13;9.68;;;5.50;;
55003;SDS011;40900;52.710;6.438;2023-07-31T08:53:39;7.82;;;4.55;;
55003;SDS011;40900;52.710;6.438;2023-07-31T08:56:05;8.60;;;4.35;;
55003;SDS011;40900;52.710;6.438;2023-07-31T08:58:32;7.40;;;4.15;;
55003;SDS011;40900;52.710;6.438;2023-07-31T09:01:01;6.45;;;4.95;;
55003;SDS011;40900;52.710;6.438;2023-07-31T09:03:32;6.80;;;4.28;;
55003;SDS011;40900;52.710;6.438;2023-07-31T09:06:00;8.20;;;4.28;;
55003;SDS011;40900;52.710;6.438;2023-07-31T09:08:29;5.00;;;3.60;;
55003;SDS011;40900;52.710;6.438;2023-07-31T09:10:58;5.47;;;3.40;;
55003;SDS011;40900;52.710;6.438;2023-07-31T09:13:27;5.60;;;3.90;;
55003;SDS011;40900;52.710;6.438;2023-07-31T09:15:54;5.30;;;3.72;;
55003;SDS011;40900;52.710;6.438;2023-07-31T09:18:20;8.18;;;3.85;;
55003;SDS011;40900;52.710;6.438;2023-07-31T09:21:03;6.15;;;3.22;;
55003;SDS011;40900;52.710;6.438;2023-07-31T09:23:43;4.63;;;3.08;;
55003;SDS011;40900;52.710;6.438;2023-07-31T09:26:10;5.63;;;3.05;;
55003;SDS011;40900;52.710;6.438;2023-07-31T09:28:36;5.32;;;3.28;;
55003;SDS011;40900;52.710;6.438;2023-07-31T09:31:02;4.80;;;3.20;;
55003;SDS011;40900;52.710;6.438;2023-07-31T09:33:29;3.60;;;2.78;;
55003;SDS011;40900;52.710;6.438;2023-07-31T09:35:58;4.88;;;3.08;;
55003;SDS011;40900;52.710;6.438;2023-07-31T09:38:24;4.00;;;2.90;;
55003;SDS011;40900;52.710;6.438;2023-07-31T09:40:50;4.47;;;3.00;;
55003;SDS011;40900;52.710;6.438;2023-07-31T09:43:17;3.83;;;2.90;;
55003;SDS011;40900;52.710;6.438;2023-07-31T09:45:44;2.88;;;2.55;;
55003;SDS011;40900;52.710;6.438;2023-07-31T09:50:47;4.13;;;3.33;;
55003;SDS011;40900;52.710;6.438;2023-07-31T09:53:14;4.88;;;3.10;;
55003;SDS011;40900;52.710;6.438;2023-07-31T09:55:42;3.95;;;3.17;;
55003;SDS011;40900;52.710;6.438;2023-07-31T09:58:09;6.15;;;2.97;;
55003;SDS011;40900;52.710;6.438;2023-07-31T10:00:36;3.95;;;2.83;;
55003;SDS011;40900;52.710;6.438;2023-07-31T10:03:09;3.33;;;2.70;;
55003;SDS011;40900;52.710;6.438;2023-07-31T10:05:37;4.82;;;3.10;;
55003;SDS011;40900;52.710;6.438;2023-07-31T10:08:15;3.15;;;2.60;;
55003;SDS011;40900;52.710;6.438;2023-07-31T10:10:44;18.48;;;4.78;;
55003;SDS011;40900;52.710;6.438;2023-07-31T10:13:10;9.93;;;3.30;;
55003;SDS011;40900;52.710;6.438;2023-07-31T10:15:37;4.20;;;3.30;;
55003;SDS011;40900;52.710;6.438;2023-07-31T10:18:03;5.95;;;2.95;;
55003;SDS011;40900;52.710;6.438;2023-07-31T10:20:31;4.45;;;3.15;;
55003;SDS011;40900;52.710;6.438;2023-07-31T10:22:57;4.30;;;3.47;;
55003;SDS011;40900;52.710;6.438;2023-07-31T10:25:26;3.90;;;3.33;;
55003;SDS011;40900;52.710;6.438;2023-07-31T10:27:52;3.88;;;2.90;;
55003;SDS011;40900;52.710;6.438;2023-07-31T10:30:20;3.30;;;3.00;;
55003;SDS011;40900;52.710;6.438;2023-07-31T10:32:50;4.43;;;2.80;;
55003;SDS011;40900;52.710;6.438;2023-07-31T10:35:18;14.05;;;3.22;;
55003;SDS011;40900;52.710;6.438;2023-07-31T10:37:47;3.55;;;2.30;;
55003;SDS011;40900;52.710;6.438;2023-07-31T10:40:17;2.45;;;1.88;;
55003;SDS011;40900;52.710;6.438;2023-07-31T10:42:54;2.22;;;1.70;;
55003;SDS011;40900;52.710;6.438;2023-07-31T10:45:32;2.78;;;1.63;;
55003;SDS011;40900;52.710;6.438;2023-07-31T10:48:22;2.40;;;1.90;;
55003;SDS011;40900;52.710;6.438;2023-07-31T10:50:49;2.00;;;1.80;;
55003;SDS011;40900;52.710;6.438;2023-07-31T10:53:26;2.10;;;1.90;;
55003;SDS011;40900;52.710;6.438;2023-07-31T10:55:59;2.47;;;1.95;;
55003;SDS011;40900;52.710;6.438;2023-07-31T10:58:26;1.83;;;1.70;;
55003;SDS011;40900;52.710;6.438;2023-07-31T11:00:56;2.45;;;1.70;;
55003;SDS011;40900;52.710;6.438;2023-07-31T11:03:44;2.03;;;1.73;;
55003;SDS011;40900;52.710;6.438;2023-07-31T11:06:10;3.40;;;1.80;;
55003;SDS011;40900;52.710;6.438;2023-07-31T11:08:41;5.43;;;2.00;;
55003;SDS011;40900;52.710;6.438;2023-07-31T11:11:09;2.40;;;1.60;;
55003;SDS011;40900;52.710;6.438;2023-07-31T11:13:43;2.70;;;1.60;;
55003;SDS011;40900;52.710;6.438;2023-07-31T11:16:14;2.50;;;1.60;;
55003;SDS011;40900;52.710;6.438;2023-07-31T11:18:40;2.53;;;1.25;;
55003;SDS011;40900;52.710;6.438;2023-07-31T11:21:13;2.83;;;1.30;;
55003;SDS011;40900;52.710;6.438;2023-07-31T11:23:40;2.88;;;1.00;;
55003;SDS011;40900;52.710;6.438;2023-07-31T11:26:07;1.83;;;1.38;;
55003;SDS011;40900;52.710;6.438;2023-07-31T11:28:33;1.67;;;1.40;;
55003;SDS011;40900;52.710;6.438;2023-07-31T11:31:00;12.18;;;1.95;;
55003;SDS011;40900;52.710;6.438;2023-07-31T11:33:26;0.95;;;0.93;;
55003;SDS011;40900;52.710;6.438;2023-07-31T11:35:52;2.70;;;1.17;;
55003;SDS011;40900;52.710;6.438;2023-07-31T11:38:25;2.70;;;1.08;;
55003;SDS011;40900;52.710;6.438;2023-07-31T11:40:53;3.58;;;1.10;;
55003;SDS011;40900;52.710;6.438;2023-07-31T11:43:20;3.08;;;1.13;;
55003;SDS011;40900;52.710;6.438;2023-07-31T11:45:50;2.45;;;1.00;;
55003;SDS011;40900;52.710;6.438;2023-07-31T11:50:52;4.40;;;1.38;;
55003;SDS011;40900;52.710;6.438;2023-07-31T11:53:33;2.20;;;1.40;;
55003;SDS011;40900;52.710;6.438;2023-07-31T11:56:16;9.80;;;2.28;;
55003;SDS011;40900;52.710;6.438;2023-07-31T11:58:43;4.07;;;1.60;;
55003;SDS011;40900;52.710;6.438;2023-07-31T12:01:13;2.10;;;1.50;;
55003;SDS011;40900;52.710;6.438;2023-07-31T12:03:40;2.45;;;1.40;;
55003;SDS011;40900;52.710;6.438;2023-07-31T12:06:08;4.93;;;1.83;;
55003;SDS011;40900;52.710;6.438;2023-07-31T12:08:33;3.90;;;2.00;;
55003;SDS011;40900;52.710;6.438;2023-07-31T12:11:03;4.75;;;1.85;;
55003;SDS011;40900;52.710;6.438;2023-07-31T12:13:30;6.28;;;2.00;;
55003;SDS011;40900;52.710;6.438;2023-07-31T12:15:58;3.08;;;1.77;;
55003;SDS011;40900;52.710;6.438;2023-07-31T12:18:26;5.68;;;2.28;;
55003;SDS011;40900;52.710;6.438;2023-07-31T12:20:56;4.45;;;2.30;;
55003;SDS011;40900;52.710;6.438;2023-07-31T12:23:27;6.82;;;2.45;;
55003;SDS011;40900;52.710;6.438;2023-07-31T12:26:08;4.70;;;2.80;;
55003;SDS011;40900;52.710;6.438;2023-07-31T12:28:44;6.72;;;3.03;;
55003;SDS011;40900;52.710;6.438;2023-07-31T12:31:12;7.88;;;3.00;;
55003;SDS011;40900;52.710;6.438;2023-07-31T12:33:40;10.73;;;3.70;;
55003;SDS011;40900;52.710;6.438;2023-07-31T12:36:07;7.38;;;3.30;;
55003;SDS011;40900;52.710;6.438;2023-07-31T12:38:37;11.48;;;3.65;;
55003;SDS011;40900;52.710;6.438;2023-07-31T12:41:03;8.40;;;3.65;;
55003;SDS011;40900;52.710;6.438;2023-07-31T12:43:31;8.18;;;3.22;;
55003;SDS011;40900;52.710;6.438;2023-07-31T12:45:57;7.68;;;3.40;;
55003;SDS011;40900;52.710;6.438;2023-07-31T12:48:23;8.45;;;2.97;;
55003;SDS011;40900;52.710;6.438;2023-07-31T12:50:48;7.32;;;2.80;;
55003;SDS011;40900;52.710;6.438;2023-07-31T12:53:15;7.00;;;2.40;;
55003;SDS011;40900;52.710;6.438;2023-07-31T12:55:41;6.65;;;2.80;;
55003;SDS011;40900;52.710;6.438;2023-07-31T12:58:07;4.45;;;2.83;;
55003;SDS011;40900;52.710;6.438;2023-07-31T13:00:32;5.07;;;3.00;;
55003;SDS011;40900;52.710;6.438;2023-07-31T13:02:59;7.32;;;3.00;;
55003;SDS011;40900;52.710;6.438;2023-07-31T13:05:25;8.63;;;4.00;;
55003;SDS011;40900;52.710;6.438;2023-07-31T13:07:52;6.07;;;3.97;;
55003;SDS011;40900;52.710;6.438;2023-07-31T13:10:18;8.02;;;3.72;;
55003;SDS011;40900;52.710;6.438;2023-07-31T13:12:44;8.27;;;3.30;;
55003;SDS011;40900;52.710;6.438;2023-07-31T13:15:10;10.50;;;2.63;;
55003;SDS011;40900;52.710;6.438;2023-07-31T13:17:36;5.68;;;2.80;;
55003;SDS011;40900;52.710;6.438;2023-07-31T13:20:02;6.00;;;2.80;;
55003;SDS011;40900;52.710;6.438;2023-07-31T13:22:29;9.85;;;3.40;;
55003;SDS011;40900;52.710;6.438;2023-07-31T13:24:55;8.20;;;2.58;;
55003;SDS011;40900;52.710;6.438;2023-07-31T13:27:21;6.45;;;3.05;;
55003;SDS011;40900;52.710;6.438;2023-07-31T13:29:48;9.38;;;3.42;;
55003;SDS011;40900;52.710;6.438;2023-07-31T13:32:15;6.75;;;3.13;;
55003;SDS011;40900;52.710;6.438;2023-07-31T13:34:41;9.25;;;3.88;;
55003;SDS011;40900;52.710;6.438;2023-07-31T13:37:07;8.80;;;4.05;;
55003;SDS011;40900;52.710;6.438;2023-07-31T13:39:32;9.45;;;4.10;;
55003;SDS011;40900;52.710;6.438;2023-07-31T13:41:59;9.55;;;3.92;;
55003;SDS011;40900;52.710;6.438;2023-07-31T13:44:28;11.63;;;4.55;;
55003;SDS011;40900;52.710;6.438;2023-07-31T13:46:54;11.05;;;4.68;;
55003;SDS011;40900;52.710;6.438;2023-07-31T13:49:19;9.90;;;4.60;;
55003;SDS011;40900;52.710;6.438;2023-07-31T13:51:45;10.95;;;4.50;;
55003;SDS011;40900;52.710;6.438;2023-07-31T13:54:11;6.88;;;4.03;;
55003;SDS011;40900;52.710;6.438;2023-07-31T13:56:37;8.25;;;3.90;;
55003;SDS011;40900;52.710;6.438;2023-07-31T13:59:03;8.38;;;3.78;;
55003;SDS011;40900;52.710;6.438;2023-07-31T14:01:29;9.10;;;3.47;;
55003;SDS011;40900;52.710;6.438;2023-07-31T14:03:55;7.00;;;3.30;;
55003;SDS011;40900;52.710;6.438;2023-07-31T14:06:21;6.38;;;3.10;;
55003;SDS011;40900;52.710;6.438;2023-07-31T14:08:47;8.35;;;3.70;;
55003;SDS011;40900;52.710;6.438;2023-07-31T14:11:13;9.45;;;3.60;;
55003;SDS011;40900;52.710;6.438;2023-07-31T14:13:38;8.10;;;3.90;;
55003;SDS011;40900;52.710;6.438;2023-07-31T14:16:04;8.25;;;3.70;;
55003;SDS011;40900;52.710;6.438;2023-07-31T14:18:30;8.38;;;4.00;;
55003;SDS011;40900;52.710;6.438;2023-07-31T14:20:56;5.80;;;3.28;;
55003;SDS011;40900;52.710;6.438;2023-07-31T14:23:21;10.50;;;3.85;;
55003;SDS011;40900;52.710;6.438;2023-07-31T14:25:47;8.85;;;4.30;;
55003;SDS011;40900;52.710;6.438;2023-07-31T14:28:13;8.80;;;4.15;;
55003;SDS011;40900;52.710;6.438;2023-07-31T14:30:39;6.75;;;3.55;;
55003;SDS011;40900;52.710;6.438;2023-07-31T14:33:05;9.30;;;3.78;;
55003;SDS011;40900;52.710;6.438;2023-07-31T14:35:31;6.82;;;3.22;;
55003;SDS011;40900;52.710;6.438;2023-07-31T14:37:56;7.13;;;3.05;;
55003;SDS011;40900;52.710;6.438;2023-07-31T14:40:22;7.60;;;3.47;;
55003;SDS011;40900;52.710;6.438;2023-07-31T14:42:48;6.93;;;3.38;;
55003;SDS011;40900;52.710;6.438;2023-07-31T14:45:14;5.75;;;2.90;;
55003;SDS011;40900;52.710;6.438;2023-07-31T14:47:39;7.00;;;3.50;;
55003;SDS011;40900;52.710;6.438;2023-07-31T14:50:05;7.97;;;3.78;;
55003;SDS011;40900;52.710;6.438;2023-07-31T14:52:31;6.40;;;3.67;;